createdAt,value
2023-02-06T00:00:06.773Z,14.29
2023-02-06T00:02:34.822Z,14.09
2023-02-06T00:05:02.820Z,14.93
2023-02-06T00:07:30.766Z,14.71
2023-02-06T00:09:58.755Z,13.87
2023-02-06T00:12:28.077Z,13.35
2023-02-06T00:14:56.253Z,14.00
2023-02-06T00:17:24.210Z,13.93
2023-02-06T00:19:52.163Z,14.21
2023-02-06T00:22:20.048Z,13.71
2023-02-06T00:24:48.570Z,12.49
2023-02-06T00:27:16.525Z,12.80
2023-02-06T00:29:45.865Z,12.64
2023-02-06T00:32:14.036Z,13.47
2023-02-06T00:34:41.956Z,13.16
2023-02-06T00:37:09.885Z,12.72
2023-02-06T00:39:37.810Z,13.43
2023-02-06T00:42:05.771Z,13.55
2023-02-06T00:44:33.798Z,13.47
2023-02-06T00:47:03.243Z,12.41
2023-02-06T00:49:31.481Z,12.77
2023-02-06T00:51:59.701Z,14.19
2023-02-06T00:54:27.733Z,14.21
2023-02-06T00:56:55.917Z,15.11
2023-02-06T00:59:23.857Z,15.15
2023-02-06T01:01:51.802Z,16.06
2023-02-06T01:04:21.163Z,15.34
2023-02-06T01:06:49.256Z,15.70
2023-02-06T01:09:17.195Z,15.46
2023-02-06T01:11:45.132Z,15.16
2023-02-06T01:14:13.384Z,14.67
2023-02-06T01:16:41.397Z,15.68
2023-02-06T01:19:11.269Z,16.10
2023-02-06T01:21:40.904Z,15.82
2023-02-06T01:24:08.927Z,16.15
2023-02-06T01:26:36.867Z,15.99
2023-02-06T01:29:05.074Z,15.74
2023-02-06T01:31:33.101Z,15.78
2023-02-06T01:34:01.165Z,16.23
2023-02-06T01:36:29.590Z,15.98
2023-02-06T01:38:58.884Z,16.18
2023-02-06T01:41:26.874Z,15.82
2023-02-06T01:44:11.687Z,16.07
2023-02-06T01:46:39.891Z,16.25
2023-02-06T01:49:07.855Z,15.83
2023-02-06T01:51:35.798Z,14.99
2023-02-06T01:54:05.496Z,15.36
2023-02-06T01:56:34.397Z,16.63
2023-02-06T01:59:05.354Z,15.71
2023-02-06T02:01:33.323Z,15.36
2023-02-06T02:04:03.632Z,15.02
2023-02-06T02:06:31.633Z,14.91
2023-02-06T02:08:59.588Z,14.61
2023-02-06T02:11:30.904Z,15.80
2023-02-06T02:13:59.118Z,14.41
2023-02-06T02:16:29.435Z,15.16
2023-02-06T02:19:03.651Z,14.93
2023-02-06T02:22:07.372Z,14.97
2023-02-06T02:24:52.500Z,15.40
2023-02-06T02:27:40.417Z,15.72
2023-02-06T02:30:25.534Z,16.49
2023-02-06T02:33:11.586Z,17.15
2023-02-06T02:35:46.201Z,18.04
2023-02-06T02:38:21.956Z,18.65
2023-02-06T02:40:52.976Z,18.95
2023-02-06T02:43:25.527Z,18.49
2023-02-06T02:45:55.890Z,18.33
2023-02-06T02:48:25.281Z,18.05
2023-02-06T02:50:54.789Z,19.31
2023-02-06T02:53:22.782Z,18.39
2023-02-06T02:55:50.724Z,19.43
2023-02-06T02:58:20.224Z,19.12
2023-02-06T03:00:50.085Z,19.83
2023-02-06T03:03:20.665Z,19.33
2023-02-06T03:05:57.482Z,19.92
2023-02-06T03:08:29.469Z,20.00
2023-02-06T03:11:02.703Z,19.49
2023-02-06T03:13:32.030Z,19.21
2023-02-06T03:16:03.374Z,18.71
2023-02-06T03:18:32.820Z,18.68
2023-02-06T03:21:02.225Z,20.14
2023-02-06T03:23:32.496Z,20.91
2023-02-06T03:26:01.900Z,20.58
2023-02-06T03:28:35.048Z,20.31
2023-02-06T03:31:04.264Z,19.91
2023-02-06T03:33:33.520Z,21.10
2023-02-06T03:36:03.780Z,19.81
2023-02-06T03:38:32.398Z,19.66
2023-02-06T03:41:00.502Z,20.10
2023-02-06T03:43:28.740Z,19.13
2023-02-06T03:46:00.228Z,20.38
2023-02-06T03:48:30.573Z,19.88
2023-02-06T03:50:58.496Z,20.57
2023-02-06T03:53:28.080Z,20.26
2023-02-06T03:55:57.639Z,20.27
2023-02-06T03:58:25.786Z,19.78
2023-02-06T04:00:54.002Z,19.85
2023-02-06T04:03:22.946Z,19.03
2023-02-06T04:05:50.803Z,19.66
2023-02-06T04:08:18.765Z,19.16
2023-02-06T04:10:48.109Z,19.63
2023-02-06T04:13:16.115Z,20.19
2023-02-06T04:15:44.124Z,19.18
2023-02-06T04:18:12.138Z,19.06
2023-02-06T04:20:41.016Z,18.51
2023-02-06T04:23:09.079Z,19.12
2023-02-06T04:25:37.119Z,18.91
2023-02-06T04:28:06.831Z,18.34
2023-02-06T04:30:34.786Z,18.37
2023-02-06T04:33:02.902Z,18.29
2023-02-06T04:35:31.057Z,19.04
2023-02-06T04:37:59.016Z,20.52
2023-02-06T04:40:26.909Z,20.50
2023-02-06T04:42:55.098Z,20.06
2023-02-06T04:45:24.510Z,20.49
2023-02-06T04:47:52.388Z,20.37
2023-02-06T04:50:20.660Z,20.44
2023-02-06T04:52:48.679Z,20.68
2023-02-06T04:55:16.606Z,20.29
2023-02-06T04:57:44.632Z,20.04
2023-02-06T05:00:14.594Z,20.20
2023-02-06T05:02:43.914Z,19.12
2023-02-06T05:05:11.847Z,19.03
2023-02-06T05:07:39.732Z,18.87
2023-02-06T05:10:09.204Z,18.50
2023-02-06T05:12:37.258Z,17.75
2023-02-06T05:15:05.616Z,17.68
2023-02-06T05:17:34.057Z,17.30
2023-02-06T05:20:03.524Z,17.38
2023-02-06T05:22:31.486Z,17.23
2023-02-06T05:24:59.405Z,16.28
2023-02-06T05:27:27.424Z,15.87
2023-02-06T05:29:55.331Z,15.54
2023-02-06T05:32:23.262Z,15.57
2023-02-06T05:34:51.525Z,14.93
2023-02-06T05:37:20.884Z,14.05
2023-02-06T05:39:48.921Z,14.14
2023-02-06T05:42:17.280Z,14.38
2023-02-06T05:44:45.526Z,13.70
2023-02-06T05:47:13.765Z,13.71
2023-02-06T05:49:44.038Z,14.12
2023-02-06T05:52:12.061Z,13.93
2023-02-06T05:54:41.736Z,13.83
2023-02-06T05:57:09.695Z,13.21
2023-02-06T05:59:37.603Z,13.64
2023-02-06T06:02:05.602Z,13.50
2023-02-06T06:04:33.542Z,13.70
2023-02-06T06:07:01.656Z,14.62
2023-02-06T06:09:29.838Z,14.37
2023-02-06T06:11:59.382Z,15.07
2023-02-06T06:14:27.489Z,15.65
2023-02-06T06:16:55.433Z,14.43
2023-02-06T06:19:23.389Z,9.63
2023-02-06T06:21:51.326Z,9.56
2023-02-06T06:24:19.726Z,10.12
2023-02-06T06:26:49.792Z,10.40
2023-02-06T06:29:23.137Z,10.61
2023-02-06T06:31:54.254Z,9.96
2023-02-06T06:34:22.284Z,10.45
2023-02-06T06:36:51.919Z,10.89
2023-02-06T06:39:22.006Z,11.06
2023-02-06T06:41:50.095Z,11.25
2023-02-06T06:44:19.568Z,11.07
2023-02-06T06:46:47.596Z,11.78
2023-02-06T06:49:16.691Z,11.88
2023-02-06T06:51:44.665Z,11.61
2023-02-06T06:54:12.887Z,11.84
2023-02-06T06:56:44.862Z,11.47
2023-02-06T06:59:13.276Z,11.94
2023-02-06T07:01:42.722Z,11.87
2023-02-06T07:04:10.874Z,11.58
2023-02-06T07:06:38.903Z,12.14
2023-02-06T07:09:06.835Z,12.00
2023-02-06T07:11:34.790Z,12.41
2023-02-06T07:14:03.008Z,12.44
2023-02-06T07:16:31.022Z,11.51
2023-02-06T07:19:00.602Z,11.81
2023-02-06T07:21:28.491Z,12.31
2023-02-06T07:23:59.123Z,11.86
2023-02-06T07:26:27.488Z,11.29
2023-02-06T07:28:55.361Z,11.69
2023-02-06T07:31:23.390Z,12.42
2023-02-06T07:33:51.322Z,11.60
2023-02-06T07:36:20.631Z,12.12
2023-02-06T07:38:48.944Z,12.37
2023-02-06T07:41:18.029Z,11.76
2023-02-06T07:43:45.943Z,12.41
2023-02-06T07:46:13.893Z,13.07
2023-02-06T07:48:42.483Z,12.20
2023-02-06T07:51:10.550Z,13.44
2023-02-06T07:53:39.875Z,13.18
2023-02-06T07:56:13.363Z,13.99
2023-02-06T07:58:44.842Z,14.15
2023-02-06T08:01:12.881Z,14.72
2023-02-06T08:03:41.140Z,15.86
2023-02-06T08:06:10.265Z,15.94
2023-02-06T08:08:39.578Z,16.41
2023-02-06T08:11:08.322Z,18.30
2023-02-06T08:13:36.296Z,18.82
2023-02-06T08:16:07.845Z,20.26
2023-02-06T08:18:36.026Z,22.50
2023-02-06T08:21:04.297Z,24.11
2023-02-06T08:23:32.577Z,25.51
2023-02-06T08:26:05.525Z,28.27
2023-02-06T08:28:35.187Z,29.85
2023-02-06T08:31:04.399Z,32.00
2023-02-06T08:33:33.961Z,36.22
2023-02-06T08:36:02.914Z,39.94
2023-02-06T08:38:30.792Z,42.74
2023-02-06T08:40:58.821Z,45.78
2023-02-06T08:43:28.225Z,48.99
2023-02-06T08:45:57.532Z,52.02
2023-02-06T08:48:25.464Z,56.75
2023-02-06T08:51:03.033Z,58.57
2023-02-06T08:53:31.065Z,63.68
2023-02-06T08:56:00.176Z,68.04
2023-02-06T08:58:29.814Z,77.12
2023-02-06T09:01:00.040Z,84.60
2023-02-06T09:03:28.528Z,88.67
2023-02-06T09:06:09.516Z,88.55
2023-02-06T09:08:38.034Z,92.73
2023-02-06T09:11:07.124Z,96.02
2023-02-06T09:13:36.810Z,100.00
2023-02-06T09:16:05.180Z,100.00
2023-02-06T09:18:33.272Z,100.00
2023-02-06T09:21:06.070Z,100.00
2023-02-06T09:23:34.186Z,100.00
2023-02-06T09:26:02.236Z,100.00
2023-02-06T09:28:30.159Z,100.00
2023-02-06T09:30:59.484Z,100.00
2023-02-06T09:33:27.516Z,100.00
2023-02-06T09:36:05.406Z,100.00
2023-02-06T09:38:37.756Z,100.00
2023-02-06T09:41:07.316Z,100.00
2023-02-06T09:43:35.266Z,100.00
2023-02-06T09:46:06.036Z,100.00
2023-02-06T09:48:34.847Z,100.00
2023-02-06T09:51:08.898Z,100.00
2023-02-06T09:53:40.435Z,100.00
2023-02-06T09:56:15.276Z,100.00
2023-02-06T09:58:45.396Z,100.00
2023-02-06T10:01:17.392Z,100.00
2023-02-06T10:03:50.857Z,100.00
2023-02-06T10:06:20.524Z,100.00
2023-02-06T10:08:53.395Z,100.00
2023-02-06T10:11:24.580Z,100.00
2023-02-06T10:13:55.296Z,100.00
2023-02-06T10:16:33.229Z,100.00
2023-02-06T10:19:04.340Z,100.00
2023-02-06T10:21:38.640Z,100.00
2023-02-06T10:24:12.112Z,100.00
2023-02-06T10:26:40.988Z,100.00
2023-02-06T10:29:16.753Z,100.00
2023-02-06T10:31:56.705Z,100.00
2023-02-06T10:34:56.039Z,100.00
2023-02-06T10:37:34.043Z,100.00
2023-02-06T10:40:20.958Z,100.00
2023-02-06T10:42:53.034Z,100.00
2023-02-06T10:45:31.157Z,100.00
2023-02-06T10:48:01.905Z,100.00
2023-02-06T10:50:31.105Z,100.00
2023-02-06T10:52:59.944Z,100.00
2023-02-06T10:55:28.992Z,100.00
2023-02-06T10:58:01.559Z,100.00
2023-02-06T11:00:29.809Z,100.00
2023-02-06T11:03:07.083Z,100.00
2023-02-06T11:05:38.486Z,100.00
2023-02-06T11:08:11.275Z,100.00
2023-02-06T11:10:39.468Z,100.00
2023-02-06T11:13:08.278Z,100.00
2023-02-06T11:15:39.454Z,100.00
2023-02-06T11:18:08.595Z,100.00
2023-02-06T11:20:39.058Z,100.00
2023-02-06T11:23:16.938Z,100.00
2023-02-06T11:25:45.366Z,100.00
2023-02-06T11:28:16.173Z,100.00
2023-02-06T11:30:54.377Z,100.00
2023-02-06T11:33:23.586Z,100.00
2023-02-06T11:35:55.843Z,100.00
2023-02-06T11:38:24.894Z,100.00
2023-02-06T11:40:57.899Z,100.00
2023-02-06T11:43:30.123Z,100.00
2023-02-06T11:46:10.990Z,100.00
2023-02-06T11:48:39.800Z,100.00
2023-02-06T11:51:09.482Z,100.00
2023-02-06T11:53:39.050Z,100.00
2023-02-06T11:56:15.936Z,100.00
2023-02-06T11:58:44.205Z,100.00
2023-02-06T12:01:19.395Z,100.00
2023-02-06T12:03:55.232Z,100.00
2023-02-06T12:06:30.335Z,100.00
2023-02-06T12:09:08.498Z,100.00
2023-02-06T12:12:05.952Z,100.00
2023-02-06T12:14:38.518Z,100.00
2023-02-06T12:17:15.298Z,100.00
2023-02-06T12:19:46.671Z,100.00
2023-02-06T12:22:18.947Z,100.00
2023-02-06T12:24:49.067Z,100.00
2023-02-06T12:27:19.656Z,100.00
2023-02-06T12:29:54.598Z,100.00
2023-02-06T12:32:23.878Z,100.00
2023-02-06T12:34:54.481Z,100.00
2023-02-06T12:37:31.603Z,100.00
2023-02-06T12:39:59.676Z,100.00
2023-02-06T12:42:36.310Z,100.00
2023-02-06T12:45:07.625Z,100.00
2023-02-06T12:47:37.805Z,100.00
2023-02-06T12:50:07.970Z,100.00
2023-02-06T12:52:40.399Z,100.00
2023-02-06T12:55:15.621Z,100.00
2023-02-06T12:57:43.569Z,100.00
2023-02-06T13:00:46.348Z,100.00
2023-02-06T13:03:27.180Z,100.00
2023-02-06T13:05:56.075Z,100.00
2023-02-06T13:08:26.930Z,100.00
2023-02-06T13:11:04.323Z,100.00
2023-02-06T13:13:39.661Z,100.00
2023-02-06T13:16:08.292Z,100.00
2023-02-06T13:18:38.019Z,100.00
2023-02-06T13:21:15.563Z,100.00
2023-02-06T13:24:06.601Z,100.00
2023-02-06T13:27:14.505Z,100.00
2023-02-06T13:29:43.584Z,100.00
2023-02-06T13:32:41.862Z,100.00
2023-02-06T13:35:30.348Z,100.00
2023-02-06T13:38:28.590Z,100.00
2023-02-06T13:41:21.686Z,100.00
2023-02-06T13:43:55.991Z,100.00
2023-02-06T13:46:25.090Z,100.00
2023-02-06T13:49:02.894Z,100.00
2023-02-06T13:51:46.747Z,100.00
2023-02-06T13:54:51.990Z,100.00
2023-02-06T13:57:34.970Z,100.00
2023-02-06T14:00:03.990Z,100.00
2023-02-06T14:02:36.392Z,100.00
2023-02-06T14:05:06.119Z,100.00
2023-02-06T14:07:54.423Z,100.00
2023-02-06T14:10:55.105Z,100.00
2023-02-06T14:13:34.152Z,100.00
2023-02-06T14:16:11.432Z,100.00
2023-02-06T14:18:44.285Z,100.00
2023-02-06T14:21:20.309Z,100.00
2023-02-06T14:24:08.083Z,100.00
2023-02-06T14:26:39.518Z,100.00
2023-02-06T14:29:17.132Z,100.00
2023-02-06T14:32:05.552Z,100.00
2023-02-06T14:34:41.066Z,100.00
2023-02-06T14:37:20.463Z,100.00
2023-02-06T14:39:49.631Z,100.00
2023-02-06T14:42:19.985Z,100.00
2023-02-06T14:44:51.525Z,100.00
2023-02-06T14:47:21.814Z,100.00
2023-02-06T14:49:56.296Z,100.00
2023-02-06T14:56:07.890Z,100.00
2023-02-06T14:58:36.042Z,100.00
2023-02-06T15:01:20.906Z,100.00
2023-02-06T15:03:49.706Z,100.00
2023-02-06T15:06:31.015Z,100.00
2023-02-06T15:08:58.929Z,100.00
2023-02-06T15:11:32.384Z,100.00
2023-02-06T15:14:01.561Z,100.00
2023-02-06T15:16:31.057Z,100.00
2023-02-06T15:19:13.011Z,100.00
2023-02-06T15:21:44.279Z,100.00
2023-02-06T15:24:27.260Z,100.00
2023-02-06T15:26:59.841Z,100.00
2023-02-06T15:29:28.550Z,100.00
2023-02-06T15:32:02.162Z,100.00
2023-02-06T15:34:36.325Z,99.22
2023-02-06T15:37:23.194Z,99.27
2023-02-06T15:39:51.113Z,98.20
2023-02-06T15:42:19.140Z,99.03
2023-02-06T15:44:47.429Z,99.35
2023-02-06T15:47:18.127Z,98.53
2023-02-06T15:49:47.313Z,98.49
2023-02-06T15:52:16.076Z,97.56
2023-02-06T15:54:45.693Z,97.76
2023-02-06T15:57:30.065Z,97.05
2023-02-06T15:59:58.072Z,97.57
2023-02-06T16:02:30.686Z,96.87
2023-02-06T16:04:58.665Z,96.85
2023-02-06T16:07:27.497Z,94.11
2023-02-06T16:09:56.640Z,94.83
2023-02-06T16:12:24.631Z,93.62
2023-02-06T16:14:56.049Z,93.72
2023-02-06T16:17:31.665Z,93.00
2023-02-06T16:20:02.349Z,92.03
2023-02-06T16:22:31.479Z,90.80
2023-02-06T16:25:15.565Z,89.39
2023-02-06T16:27:44.494Z,90.28
2023-02-06T16:30:22.209Z,89.74
2023-02-06T16:33:29.876Z,89.08
2023-02-06T16:36:02.133Z,88.92
2023-02-06T16:38:30.535Z,88.08
2023-02-06T16:40:58.468Z,88.17
2023-02-06T16:43:28.007Z,88.27
2023-02-06T16:45:56.271Z,88.30
2023-02-06T16:48:25.578Z,88.09
2023-02-06T16:50:53.589Z,88.40
2023-02-06T16:53:22.752Z,87.91
2023-02-06T16:55:50.770Z,88.64
2023-02-06T16:58:20.434Z,90.24
2023-02-06T17:00:48.841Z,89.12
2023-02-06T17:03:17.806Z,90.06
2023-02-06T17:05:47.564Z,89.90
2023-02-06T17:08:16.970Z,90.23
2023-02-06T17:10:44.980Z,89.55
2023-02-06T17:13:15.293Z,90.04
2023-02-06T17:15:43.537Z,89.62
2023-02-06T17:18:12.967Z,90.15
2023-02-06T17:20:41.298Z,90.21
2023-02-06T17:23:11.400Z,89.28
2023-02-06T17:25:39.575Z,87.72
2023-02-06T17:28:08.274Z,89.14
2023-02-06T17:30:37.253Z,89.00
2023-02-06T17:33:05.594Z,89.47
2023-02-06T17:35:33.967Z,90.02
2023-02-06T17:38:01.973Z,89.94
2023-02-06T17:40:32.936Z,91.35
2023-02-06T17:43:03.882Z,90.46
2023-02-06T17:45:32.480Z,92.33
2023-02-06T17:48:00.393Z,92.91
2023-02-06T17:50:28.877Z,93.80
2023-02-06T17:52:58.888Z,93.98
2023-02-06T17:55:26.916Z,94.70
2023-02-06T17:57:56.346Z,94.84
2023-02-06T18:00:24.873Z,97.39
2023-02-06T18:02:53.356Z,98.81
2023-02-06T18:05:21.412Z,100.00
2023-02-06T18:07:50.729Z,100.00
2023-02-06T18:10:18.861Z,100.00
2023-02-06T18:12:46.812Z,100.00
2023-02-06T18:15:16.158Z,100.00
2023-02-06T18:17:44.155Z,100.00
2023-02-06T18:20:13.095Z,100.00
2023-02-06T18:22:42.160Z,100.00
2023-02-06T18:25:10.795Z,100.00
2023-02-06T18:27:39.400Z,100.00
2023-02-06T18:30:08.321Z,100.00
2023-02-06T18:32:38.077Z,100.00
2023-02-06T18:35:06.773Z,100.00
2023-02-06T18:37:35.071Z,100.00
2023-02-06T18:40:03.151Z,100.00
2023-02-06T18:42:48.523Z,100.00
2023-02-06T18:45:16.537Z,100.00
2023-02-06T18:47:45.826Z,100.00
2023-02-06T18:50:14.034Z,100.00
2023-02-06T18:52:43.551Z,100.00
2023-02-06T18:55:11.563Z,100.00
2023-02-06T18:57:40.922Z,100.00
2023-02-06T19:00:09.741Z,100.00
2023-02-06T19:02:37.799Z,100.00
2023-02-06T19:05:07.665Z,100.00
2023-02-06T19:07:35.862Z,100.00
2023-02-06T19:10:05.656Z,100.00
2023-02-06T19:12:33.839Z,100.00
2023-02-06T19:15:01.937Z,100.00
2023-02-06T19:17:29.993Z,100.00
2023-02-06T19:19:58.046Z,100.00
2023-02-06T19:22:27.316Z,100.00
2023-02-06T19:24:57.032Z,100.00
2023-02-06T19:27:26.174Z,100.00
2023-02-06T19:29:54.150Z,100.00
2023-02-06T19:32:22.257Z,100.00
2023-02-06T19:34:50.480Z,100.00
2023-02-06T19:37:18.529Z,100.00
2023-02-06T19:39:47.982Z,100.00
2023-02-06T19:42:17.013Z,100.00
2023-02-06T19:44:45.732Z,100.00
2023-02-06T19:47:13.746Z,100.00
2023-02-06T19:49:43.539Z,100.00
2023-02-06T19:52:12.283Z,100.00
2023-02-06T19:54:40.535Z,100.00
2023-02-06T19:57:09.882Z,100.00
2023-02-06T19:59:37.993Z,100.00
2023-02-06T20:02:05.931Z,100.00
2023-02-06T20:04:38.835Z,100.00
2023-02-06T20:07:06.984Z,100.00
2023-02-06T20:09:35.398Z,100.00
2023-02-06T20:12:03.406Z,100.00
2023-02-06T20:14:32.936Z,100.00
2023-02-06T20:17:01.192Z,100.00
2023-02-06T20:19:29.427Z,100.00
2023-02-06T20:21:58.736Z,100.00
2023-02-06T20:24:29.032Z,99.01
2023-02-06T20:26:58.894Z,98.71
2023-02-06T20:29:27.997Z,96.88
2023-02-06T20:31:57.530Z,96.46
2023-02-06T20:34:26.734Z,95.59
2023-02-06T20:36:55.211Z,95.37
2023-02-06T20:39:23.278Z,95.07
2023-02-06T20:41:51.546Z,95.61
2023-02-06T20:44:19.913Z,94.84
2023-02-06T20:46:48.136Z,95.48
2023-02-06T20:49:18.546Z,95.72
2023-02-06T20:51:46.516Z,95.87
2023-02-06T20:54:14.561Z,96.32
2023-02-06T20:56:42.906Z,97.06
2023-02-06T20:59:12.764Z,97.44
2023-02-06T21:01:42.470Z,99.28
2023-02-06T21:04:11.300Z,100.00
2023-02-06T21:06:40.585Z,100.00
2023-02-06T21:09:08.955Z,100.00
2023-02-06T21:11:38.272Z,100.00
2023-02-06T21:14:06.523Z,100.00
2023-02-06T21:16:34.686Z,100.00
2023-02-06T21:19:04.782Z,100.00
2023-02-06T21:21:32.996Z,100.00
2023-02-06T21:24:02.430Z,100.00
2023-02-06T21:26:30.925Z,100.00
2023-02-06T21:28:59.771Z,100.00
2023-02-06T21:31:34.159Z,100.00
2023-02-06T21:34:07.123Z,100.00
2023-02-06T21:36:35.591Z,100.00
2023-02-06T21:39:05.067Z,100.00
2023-02-06T21:41:33.632Z,100.00
2023-02-06T21:44:01.566Z,99.57
2023-02-06T21:46:30.977Z,98.93
2023-02-06T21:48:59.037Z,98.91
2023-02-06T21:51:27.007Z,98.27
2023-02-06T21:53:56.424Z,97.82
2023-02-06T21:56:27.712Z,97.53
2023-02-06T21:58:56.016Z,96.55
2023-02-06T22:01:25.132Z,96.52
2023-02-06T22:03:53.166Z,96.40
2023-02-06T22:06:21.394Z,96.52
2023-02-06T22:08:51.838Z,96.96
2023-02-06T22:11:21.453Z,97.32
2023-02-06T22:13:50.839Z,96.91
2023-02-06T22:16:20.256Z,97.44
2023-02-06T22:18:48.491Z,97.83
2023-02-06T22:21:17.836Z,97.54
2023-02-06T22:23:46.026Z,96.74
2023-02-06T22:26:15.472Z,97.65
2023-02-06T22:28:43.499Z,98.25
2023-02-06T22:31:13.737Z,97.51
2023-02-06T22:33:41.702Z,98.10
2023-02-06T22:36:11.594Z,98.52
2023-02-06T22:38:39.658Z,97.68
2023-02-06T22:41:08.467Z,98.33
2023-02-06T22:43:37.869Z,96.84
2023-02-06T22:46:06.248Z,97.63
2023-02-06T22:48:35.636Z,97.01
2023-02-06T22:51:05.914Z,98.24
2023-02-06T22:53:33.946Z,98.20
2023-02-06T22:56:20.243Z,97.64
2023-02-06T22:58:48.298Z,97.61
2023-02-06T23:01:16.360Z,97.98
2023-02-06T23:03:45.749Z,99.05
2023-02-06T23:06:15.043Z,98.37
2023-02-06T23:08:43.203Z,98.33
2023-02-06T23:11:11.346Z,98.52
2023-02-06T23:13:39.588Z,98.77
2023-02-06T23:16:07.687Z,98.90
2023-02-06T23:18:35.660Z,97.86
2023-02-06T23:21:06.046Z,97.96
2023-02-06T23:23:34.106Z,97.48
2023-02-06T23:26:02.149Z,96.31
2023-02-06T23:28:30.551Z,96.53
2023-02-06T23:30:58.470Z,96.60
2023-02-06T23:33:26.485Z,96.20
2023-02-06T23:35:54.691Z,96.03
2023-02-06T23:38:23.968Z,96.68
2023-02-06T23:40:51.937Z,97.75
2023-02-06T23:43:19.873Z,97.56
2023-02-06T23:45:47.917Z,97.68
2023-02-06T23:48:15.814Z,97.81
2023-02-06T23:50:43.773Z,98.14
2023-02-06T23:53:11.817Z,99.17
2023-02-06T23:55:41.586Z,98.92
2023-02-06T23:58:09.549Z,99.61
